createdAt,value
2018-06-08T00:01:57.759Z,19.60
2018-06-08T00:04:25.338Z,19.60
2018-06-08T00:06:52.692Z,19.60
2018-06-08T00:09:19.983Z,19.60
2018-06-08T00:11:47.253Z,19.60
2018-06-08T00:14:14.599Z,19.60
2018-06-08T00:16:42.152Z,19.70
2018-06-08T00:19:09.414Z,19.60
2018-06-08T00:21:36.726Z,19.60
2018-06-08T00:24:04.020Z,19.60
2018-06-08T00:26:31.325Z,19.60
2018-06-08T00:28:58.605Z,19.60
2018-06-08T00:31:25.947Z,19.60
2018-06-08T00:33:53.273Z,19.60
2018-06-08T00:36:20.544Z,19.60
2018-06-08T00:38:47.842Z,19.60
2018-06-08T00:41:15.111Z,19.50
2018-06-08T00:46:09.747Z,19.50
2018-06-08T00:48:37.106Z,19.60
2018-06-08T00:51:04.495Z,19.50
2018-06-08T00:53:31.773Z,19.50
2018-06-08T00:55:59.167Z,19.50
2018-06-08T00:58:26.420Z,19.50
2018-06-08T01:00:53.753Z,19.40
2018-06-08T01:03:21.032Z,19.40
2018-06-08T01:05:48.414Z,19.30
2018-06-08T01:08:15.747Z,19.30
2018-06-08T01:10:43.095Z,19.30
2018-06-08T01:13:12.126Z,19.20
2018-06-08T01:15:39.833Z,19.20
2018-06-08T01:18:07.203Z,19.20
2018-06-08T01:20:34.484Z,19.10
2018-06-08T01:23:01.758Z,19.10
2018-06-08T01:25:29.057Z,19.10
2018-06-08T01:27:56.427Z,19.00
2018-06-08T01:30:23.749Z,19.10
2018-06-08T01:32:51.021Z,19.00
2018-06-08T01:35:18.275Z,19.00
2018-06-08T01:37:45.585Z,19.00
2018-06-08T01:40:12.884Z,19.00
2018-06-08T01:42:40.180Z,19.00
2018-06-08T01:45:07.526Z,19.00
2018-06-08T01:47:34.883Z,19.00
2018-06-08T01:50:02.221Z,19.00
2018-06-08T01:52:29.544Z,19.10
2018-06-08T01:57:24.133Z,19.10
2018-06-08T01:59:51.415Z,19.10
2018-06-08T02:02:18.695Z,19.10
2018-06-08T02:04:46.021Z,19.00
2018-06-08T02:07:13.281Z,19.00
2018-06-08T02:12:07.843Z,18.90
2018-06-08T02:14:35.220Z,18.90
2018-06-08T02:17:02.490Z,18.80
2018-06-08T02:19:29.756Z,18.70
2018-06-08T02:21:57.048Z,18.70
2018-06-08T02:24:24.440Z,18.60
2018-06-08T02:26:51.713Z,18.40
2018-06-08T02:29:18.965Z,18.40
2018-06-08T02:31:46.252Z,18.20
2018-06-08T02:34:13.558Z,18.10
2018-06-08T02:36:40.856Z,18.20
2018-06-08T02:39:08.117Z,18.20
2018-06-08T02:41:35.719Z,18.30
2018-06-08T02:44:03.293Z,18.40
2018-06-08T02:48:58.035Z,18.30
2018-06-08T02:51:25.317Z,18.10
2018-06-08T02:53:52.706Z,18.20
2018-06-08T02:56:19.982Z,18.20
2018-06-08T02:58:47.272Z,18.20
2018-06-08T03:01:14.710Z,18.30
2018-06-08T03:03:41.961Z,18.40
2018-06-08T03:06:09.247Z,18.50
2018-06-08T03:08:36.525Z,18.50
2018-06-08T03:11:03.769Z,18.60
2018-06-08T03:13:31.014Z,18.60
2018-06-08T03:15:58.286Z,18.50
2018-06-08T03:18:25.606Z,18.50
2018-06-08T03:20:53.433Z,18.50
2018-06-08T03:23:20.772Z,18.50
2018-06-08T03:25:48.027Z,18.50
2018-06-08T03:28:15.298Z,18.50
2018-06-08T03:30:42.583Z,18.50
2018-06-08T03:33:09.837Z,18.50
2018-06-08T03:38:50.612Z,18.60
2018-06-08T03:41:17.890Z,18.70
2018-06-08T03:43:45.179Z,18.70
2018-06-08T03:48:39.868Z,18.60
2018-06-08T03:51:07.744Z,18.50
2018-06-08T03:53:37.242Z,18.40
2018-06-08T03:56:17.959Z,18.40
2018-06-08T03:58:57.014Z,18.30
2018-06-08T04:01:24.606Z,18.50
2018-06-08T04:03:51.932Z,18.60
2018-06-08T04:06:19.609Z,18.70
2018-06-08T04:09:50.053Z,18.70
2018-06-08T04:12:18.172Z,18.80
2018-06-08T04:14:45.498Z,18.90
2018-06-08T04:19:40.059Z,18.90
2018-06-08T04:22:07.344Z,19.00
2018-06-08T04:24:34.649Z,19.00
2018-06-08T04:27:02.038Z,19.00
2018-06-08T04:29:29.418Z,18.90
2018-06-08T04:31:56.726Z,18.90
2018-06-08T04:34:24.046Z,18.90
2018-06-08T04:36:51.363Z,18.90
2018-06-08T04:39:18.605Z,18.80
2018-06-08T04:41:45.887Z,18.90
2018-06-08T04:44:13.223Z,18.80
2018-06-08T04:46:40.497Z,18.80
2018-06-08T04:49:07.756Z,18.80
2018-06-08T04:51:35.081Z,18.80
2018-06-08T04:54:02.458Z,18.80
2018-06-08T04:56:29.745Z,18.80
2018-06-08T04:58:57.063Z,18.80
2018-06-08T05:01:24.457Z,18.80
2018-06-08T05:03:51.779Z,18.80
2018-06-08T05:06:19.175Z,18.80
2018-06-08T05:08:47.097Z,18.80
2018-06-08T05:11:14.394Z,18.90
2018-06-08T05:13:41.676Z,18.90
2018-06-08T05:16:08.953Z,18.90
2018-06-08T05:18:36.271Z,18.90
2018-06-08T05:21:03.555Z,18.90
2018-06-08T05:23:30.888Z,19.00
2018-06-08T05:25:58.204Z,19.00
2018-06-08T05:28:25.546Z,19.10
2018-06-08T05:30:52.800Z,19.10
2018-06-08T05:33:20.252Z,19.20
2018-06-08T05:38:14.907Z,19.50
2018-06-08T05:40:42.239Z,19.60
2018-06-08T05:43:09.521Z,19.80
2018-06-08T05:45:36.914Z,19.80
2018-06-08T05:48:04.347Z,19.90
2018-06-08T05:50:31.646Z,19.90
2018-06-08T05:52:59.022Z,19.90
2018-06-08T05:55:26.382Z,19.90
2018-06-08T05:57:53.688Z,19.90
2018-06-08T06:00:21.293Z,19.90
2018-06-08T06:02:48.534Z,19.90
2018-06-08T06:05:15.788Z,20.00
2018-06-08T06:07:43.110Z,20.00
2018-06-08T06:12:37.875Z,20.00
2018-06-08T06:15:05.190Z,19.90
2018-06-08T06:19:59.875Z,20.00
2018-06-08T06:22:27.138Z,20.10
2018-06-08T06:24:54.478Z,20.20
2018-06-08T06:27:21.781Z,20.20
2018-06-08T06:29:49.049Z,20.20
2018-06-08T06:34:43.726Z,20.40
2018-06-08T06:37:11.066Z,20.50
2018-06-08T06:39:38.380Z,20.60
2018-06-08T06:42:06.767Z,20.80
2018-06-08T06:44:35.581Z,20.80
2018-06-08T06:47:13.337Z,20.80
2018-06-08T06:49:40.979Z,20.90
2018-06-08T06:52:08.251Z,21.10
2018-06-08T06:54:35.562Z,21.10
2018-06-08T06:59:30.105Z,21.30
2018-06-08T07:01:57.389Z,21.50
2018-06-08T07:04:24.672Z,21.60
2018-06-08T07:06:52.126Z,21.70
2018-06-08T07:09:19.431Z,21.90
2018-06-08T07:11:46.838Z,22.10
2018-06-08T07:14:14.136Z,22.30
2018-06-08T07:16:41.472Z,22.50
2018-06-08T07:19:08.833Z,22.50
2018-06-08T07:21:36.181Z,22.60
2018-06-08T07:24:03.484Z,22.70
2018-06-08T07:26:30.842Z,22.70
2018-06-08T07:28:58.122Z,22.80
2018-06-08T07:31:25.475Z,22.80
2018-06-08T07:33:52.794Z,22.70
2018-06-08T07:36:20.155Z,22.70
2018-06-08T07:38:47.481Z,22.80
2018-06-08T07:41:14.904Z,22.80
2018-06-08T07:43:42.179Z,23.00
2018-06-08T07:46:09.466Z,23.00
2018-06-08T07:48:36.717Z,23.10
2018-06-08T07:51:04.030Z,23.00
2018-06-08T07:53:31.335Z,22.90
2018-06-08T07:55:58.674Z,23.00
2018-06-08T07:58:25.947Z,23.00
2018-06-08T08:00:53.240Z,23.10
2018-06-08T08:03:20.563Z,23.10
2018-06-08T08:05:47.848Z,23.20
2018-06-08T08:08:15.292Z,23.30
2018-06-08T08:10:42.590Z,23.40
2018-06-08T08:13:09.860Z,23.40
2018-06-08T08:15:37.439Z,23.50
2018-06-08T08:18:04.729Z,23.60
2018-06-08T08:20:32.009Z,23.60
2018-06-08T08:22:59.429Z,23.40
2018-06-08T08:25:26.707Z,23.30
2018-06-08T08:27:54.076Z,23.30
2018-06-08T08:30:21.427Z,23.30
2018-06-08T08:32:48.861Z,23.40
2018-06-08T08:35:16.221Z,23.40
2018-06-08T08:37:43.697Z,23.60
2018-06-08T08:40:10.990Z,23.60
2018-06-08T08:42:38.465Z,23.80
2018-06-08T08:45:05.759Z,23.80
2018-06-08T08:47:33.026Z,24.00
2018-06-08T08:50:00.282Z,24.20
2018-06-08T08:52:27.596Z,24.40
2018-06-08T08:54:54.972Z,24.60
2018-06-08T08:57:22.347Z,24.60
2018-06-08T08:59:50.226Z,24.60
2018-06-08T09:02:17.601Z,24.50
2018-06-08T09:04:44.944Z,24.50
2018-06-08T09:07:12.780Z,24.50
2018-06-08T09:09:40.160Z,24.60
2018-06-08T09:12:07.425Z,24.90
2018-06-08T09:14:34.722Z,24.90
2018-06-08T09:17:01.993Z,25.00
2018-06-08T09:19:29.630Z,25.00
2018-06-08T09:21:57.065Z,24.90
2018-06-08T09:24:24.359Z,25.10
2018-06-08T09:26:51.655Z,25.20
2018-06-08T09:29:18.963Z,25.00
2018-06-08T09:34:13.675Z,25.00
2018-06-08T09:39:08.376Z,25.00
2018-06-08T09:41:35.662Z,25.30
2018-06-08T09:44:02.987Z,25.30
2018-06-08T09:46:30.260Z,25.30
2018-06-08T09:48:57.704Z,25.40
2018-06-08T09:51:25.030Z,25.40
2018-06-08T09:53:52.552Z,25.60
2018-06-08T09:56:19.898Z,25.80
2018-06-08T09:58:47.162Z,25.80
2018-06-08T10:01:14.731Z,25.90
2018-06-08T10:03:42.123Z,25.80
2018-06-08T10:06:10.345Z,25.90
2018-06-08T10:08:37.857Z,25.80
2018-06-08T10:11:05.314Z,25.80
2018-06-08T10:16:00.859Z,25.80
2018-06-08T10:20:55.627Z,25.70
2018-06-08T10:23:23.043Z,25.60
2018-06-08T10:25:50.467Z,25.70
2018-06-08T10:28:18.001Z,25.80
2018-06-08T10:30:46.372Z,25.90
2018-06-08T10:33:13.647Z,25.80
2018-06-08T10:35:41.237Z,25.90
2018-06-08T10:38:08.546Z,26.00
2018-06-08T10:43:20.815Z,26.00
2018-06-08T10:45:48.136Z,25.80
2018-06-08T10:48:15.398Z,25.70
2018-06-08T10:50:42.733Z,25.80
2018-06-08T10:53:10.001Z,25.80
2018-06-08T10:55:37.324Z,26.10
2018-06-08T10:58:04.710Z,26.30
2018-06-08T11:00:32.002Z,26.50
2018-06-08T11:02:59.319Z,26.50
2018-06-08T11:05:26.707Z,26.60
2018-06-08T11:07:54.005Z,26.90
2018-06-08T11:10:21.289Z,26.70
2018-06-08T11:12:48.653Z,26.60
2018-06-08T11:17:43.466Z,26.40
2018-06-08T11:20:11.806Z,26.40
2018-06-08T11:22:40.796Z,26.40
2018-06-08T11:25:10.783Z,26.70
2018-06-08T11:27:38.492Z,26.80
2018-06-08T11:30:06.266Z,26.90
2018-06-08T11:32:36.044Z,27.10
2018-06-08T11:35:03.326Z,27.40
2018-06-08T11:37:30.692Z,27.60
2018-06-08T11:39:58.045Z,27.70
2018-06-08T11:42:26.590Z,27.60
2018-06-08T11:44:54.539Z,27.70
2018-06-08T11:47:22.201Z,27.90
2018-06-08T11:49:49.517Z,28.00
2018-06-08T11:52:16.922Z,28.00
2018-06-08T11:54:44.196Z,28.00
2018-06-08T11:57:11.632Z,27.80
2018-06-08T11:59:39.016Z,27.80
2018-06-08T12:02:06.493Z,28.10
2018-06-08T12:04:34.000Z,28.10
2018-06-08T12:07:01.439Z,28.00
2018-06-08T12:09:29.075Z,28.40
2018-06-08T12:11:56.377Z,28.40
2018-06-08T12:14:23.840Z,28.70
2018-06-08T12:16:51.138Z,29.00
2018-06-08T12:19:18.448Z,29.10
2018-06-08T12:21:46.064Z,29.10
2018-06-08T12:24:14.394Z,29.40
2018-06-08T12:26:41.689Z,29.60
2018-06-08T12:29:08.974Z,29.80
2018-06-08T12:31:36.270Z,29.50
2018-06-08T12:34:03.558Z,29.10
2018-06-08T12:36:30.869Z,29.00
2018-06-08T12:38:58.351Z,29.40
2018-06-08T12:41:25.680Z,29.90
2018-06-08T12:43:52.997Z,30.00
2018-06-08T12:46:20.353Z,30.30
2018-06-08T12:51:16.307Z,30.10
2018-06-08T12:53:44.216Z,30.20
2018-06-08T12:56:11.726Z,30.30
2018-06-08T12:58:39.036Z,30.70
2018-06-08T13:01:06.616Z,30.80
2018-06-08T13:03:33.922Z,31.00
2018-06-08T13:06:01.277Z,31.20
2018-06-08T13:08:28.648Z,31.50
2018-06-08T13:10:56.045Z,31.60
2018-06-08T13:13:23.337Z,31.40
2018-06-08T13:15:50.772Z,31.30
2018-06-08T13:18:18.130Z,31.00
2018-06-08T13:20:45.403Z,30.70
2018-06-08T13:23:12.729Z,30.50
2018-06-08T13:28:07.406Z,30.80
2018-06-08T13:30:34.816Z,31.00
2018-06-08T13:33:02.310Z,31.10
2018-06-08T13:35:29.701Z,31.30
2018-06-08T13:37:57.350Z,31.60
2018-06-08T13:40:24.650Z,32.10
2018-06-08T13:42:52.311Z,32.30
2018-06-08T13:45:19.667Z,32.50
2018-06-08T13:47:47.072Z,32.50
2018-06-08T13:50:14.582Z,32.60
2018-06-08T13:52:41.908Z,32.80
2018-06-08T13:55:09.266Z,32.60
2018-06-08T13:57:37.161Z,32.60
2018-06-08T14:00:04.463Z,32.90
2018-06-08T14:02:31.878Z,33.00
2018-06-08T14:04:59.423Z,33.10
2018-06-08T14:07:26.764Z,33.30
2018-06-08T14:09:54.453Z,33.60
2018-06-08T14:12:21.910Z,33.00
2018-06-08T14:14:51.146Z,32.90
2018-06-08T14:19:46.705Z,33.00
2018-06-08T14:22:14.380Z,33.40
2018-06-08T14:24:41.792Z,33.60
2018-06-08T14:27:09.120Z,33.60
2018-06-08T14:29:36.405Z,33.40
2018-06-08T14:32:03.763Z,33.60
2018-06-08T14:34:31.305Z,33.70
2018-06-08T14:36:58.745Z,33.80
2018-06-08T14:39:26.259Z,33.60
2018-06-08T14:41:53.653Z,33.40
2018-06-08T14:44:21.106Z,33.20
2018-06-08T14:46:48.693Z,33.70
2018-06-08T14:49:16.949Z,34.30
2018-06-08T14:51:44.670Z,34.60
2018-06-08T14:54:12.267Z,34.80
2018-06-08T14:56:39.714Z,34.80
2018-06-08T14:59:07.156Z,34.60
2018-06-08T15:01:34.996Z,34.20
2018-06-08T15:04:02.355Z,33.50
2018-06-08T15:06:29.748Z,33.10
2018-06-08T15:08:58.127Z,33.00
2018-06-08T15:11:25.674Z,32.60
2018-06-08T15:13:53.049Z,32.60
2018-06-08T15:16:20.424Z,32.60
2018-06-08T15:18:47.783Z,32.60
2018-06-08T15:21:15.102Z,32.40
2018-06-08T15:23:42.995Z,32.10
2018-06-08T15:26:11.120Z,31.90
2018-06-08T15:28:38.471Z,31.70
2018-06-08T15:31:05.754Z,31.40
2018-06-08T15:33:33.166Z,31.30
2018-06-08T15:36:01.143Z,31.00
2018-06-08T15:38:28.848Z,30.40
2018-06-08T15:40:56.462Z,30.10
2018-06-08T15:43:23.780Z,29.90
2018-06-08T15:45:51.180Z,29.50
2018-06-08T16:01:23.922Z,29.20
2018-06-08T16:03:51.806Z,26.70
2018-06-08T16:06:19.468Z,26.30
2018-06-08T16:08:46.826Z,26.10
2018-06-08T16:11:14.466Z,26.00
2018-06-08T16:13:41.960Z,25.80
2018-06-08T16:16:09.433Z,26.00
2018-06-08T16:18:36.769Z,26.10
2018-06-08T16:21:04.171Z,26.30
2018-06-08T16:23:31.487Z,26.50
2018-06-08T16:26:05.193Z,26.60
2018-06-08T16:28:33.215Z,26.80
2018-06-08T16:31:01.988Z,26.70
2018-06-08T16:33:36.969Z,26.70
2018-06-08T16:36:09.864Z,26.70
2018-06-08T16:38:37.207Z,27.00
2018-06-08T16:41:04.624Z,26.90
2018-06-08T16:43:32.076Z,26.50
2018-06-08T16:46:02.532Z,26.30
2018-06-08T16:48:39.367Z,26.10
2018-06-08T16:51:08.579Z,26.10
2018-06-08T16:53:37.055Z,25.90
2018-06-08T16:56:05.549Z,25.80
2018-06-08T16:58:32.941Z,25.50
2018-06-08T17:01:00.582Z,25.40
2018-06-08T17:03:27.976Z,25.30
2018-06-08T17:05:55.536Z,25.30
2018-06-08T17:08:23.152Z,25.30
2018-06-08T17:10:53.958Z,25.20
2018-06-08T17:13:21.559Z,25.20
2018-06-08T17:15:49.553Z,25.00
2018-06-08T17:18:16.945Z,24.80
2018-06-08T17:20:44.555Z,24.80
2018-06-08T17:23:12.093Z,24.70
2018-06-08T17:25:40.889Z,24.70
2018-06-08T17:28:08.265Z,24.60
2018-06-08T17:30:35.822Z,24.60
2018-06-08T17:33:03.286Z,24.50
2018-06-08T17:35:31.311Z,24.60
2018-06-08T17:37:58.771Z,24.50
2018-06-08T17:40:26.226Z,24.50
2018-06-08T17:42:54.220Z,24.60
2018-06-08T17:45:22.399Z,24.60
2018-06-08T17:47:50.909Z,24.60
2018-06-08T17:50:18.893Z,24.60
2018-06-08T17:52:46.388Z,24.60
2018-06-08T17:55:15.418Z,24.60
2018-06-08T17:57:43.178Z,24.70
2018-06-08T18:00:12.608Z,24.80
2018-06-08T18:02:40.022Z,24.70
2018-06-08T18:05:09.102Z,24.70
2018-06-08T18:07:37.907Z,24.70
2018-06-08T18:10:05.878Z,24.70
2018-06-08T18:12:36.130Z,24.70
2018-06-08T18:15:04.114Z,24.60
2018-06-08T18:17:34.138Z,24.60
2018-06-08T18:20:01.820Z,24.50
2018-06-08T18:22:32.554Z,24.50
2018-06-08T18:25:00.604Z,24.50
2018-06-08T18:27:28.728Z,24.40
2018-06-08T18:29:56.171Z,24.30
2018-06-08T18:32:23.830Z,24.20
2018-06-08T18:34:51.317Z,24.10
2018-06-08T18:37:23.815Z,23.90
2018-06-08T18:39:54.885Z,23.80
2018-06-08T18:42:22.304Z,23.60
2018-06-08T18:44:51.215Z,23.50
2018-06-08T18:50:13.462Z,23.20
2018-06-08T18:52:43.442Z,23.00
2018-06-08T18:55:11.851Z,23.00
2018-06-08T18:57:39.504Z,22.90
2018-06-08T19:00:07.816Z,22.80
2018-06-08T19:05:04.380Z,22.50
2018-06-08T19:07:32.365Z,22.40
2018-06-08T19:10:01.738Z,22.20
2018-06-08T19:12:29.609Z,22.00
2018-06-08T19:14:57.499Z,21.90
2018-06-08T19:17:24.981Z,21.70
2018-06-08T19:19:52.959Z,21.60
2018-06-08T19:22:20.512Z,21.50
2018-06-08T19:24:50.370Z,21.30
2018-06-08T19:27:17.840Z,21.30
2018-06-08T19:29:45.210Z,21.20
2018-06-08T19:32:12.504Z,21.20
2018-06-08T19:34:42.568Z,21.20
2018-06-08T19:37:11.824Z,21.20
2018-06-08T19:39:40.946Z,21.20
2018-06-08T19:44:35.890Z,21.00
2018-06-08T19:47:04.974Z,20.90
2018-06-08T19:49:33.150Z,20.90
2018-06-08T19:52:00.987Z,20.80
2018-06-08T19:54:28.555Z,20.70
2018-06-08T19:56:56.689Z,20.70
2018-06-08T19:59:24.874Z,20.70
2018-06-08T20:01:52.845Z,20.70
2018-06-08T20:04:20.298Z,20.70
2018-06-08T20:06:49.163Z,20.60
2018-06-08T20:09:16.764Z,20.60
2018-06-08T20:11:44.222Z,20.60
2018-06-08T20:14:11.762Z,20.50
2018-06-08T20:16:39.847Z,20.60
2018-06-08T20:19:07.491Z,20.50
2018-06-08T20:21:35.260Z,20.50
2018-06-08T20:24:06.537Z,20.50
2018-06-08T20:26:46.068Z,20.40
2018-06-08T20:29:16.915Z,20.40
2018-06-08T20:31:49.113Z,20.40
2018-06-08T20:34:21.010Z,20.40
2018-06-08T20:36:48.590Z,20.30
2018-06-08T20:39:27.952Z,20.30
2018-06-08T20:41:55.715Z,20.30
2018-06-08T20:44:24.063Z,20.20
2018-06-08T20:46:51.795Z,20.10
2018-06-08T20:49:22.034Z,20.10
2018-06-08T20:51:50.488Z,20.10
2018-06-08T20:54:19.314Z,20.00
2018-06-08T20:56:57.034Z,20.00
2018-06-08T20:59:26.606Z,20.00
2018-06-08T21:01:54.470Z,19.90
2018-06-08T21:04:22.841Z,19.90
2018-06-08T21:06:51.076Z,19.90
2018-06-08T21:09:18.695Z,19.80
2018-06-08T21:11:46.201Z,19.80
2018-06-08T21:14:15.975Z,19.80
2018-06-08T21:16:45.471Z,19.70
2018-06-08T21:19:20.409Z,19.80
2018-06-08T21:21:49.836Z,19.80
2018-06-08T21:24:22.431Z,19.80
2018-06-08T21:26:56.136Z,19.80
2018-06-08T21:29:24.779Z,19.70
2018-06-08T21:31:52.227Z,19.70
2018-06-08T21:34:19.673Z,19.60
2018-06-08T21:36:47.074Z,19.60
2018-06-08T21:39:15.384Z,19.60
2018-06-08T21:41:42.847Z,19.50
2018-06-08T21:44:10.972Z,19.50
2018-06-08T21:46:38.413Z,19.50
2018-06-08T21:49:05.809Z,19.40
2018-06-08T21:51:33.211Z,19.40
2018-06-08T21:54:00.598Z,19.30
2018-06-08T21:56:28.138Z,19.30
2018-06-08T21:58:55.976Z,19.20
2018-06-08T22:01:24.028Z,19.10
2018-06-08T22:03:51.642Z,19.00
2018-06-08T22:06:19.235Z,19.00
2018-06-08T22:08:46.649Z,18.90
2018-06-08T22:11:14.061Z,18.90
2018-06-08T22:13:44.251Z,18.90
2018-06-08T22:16:11.693Z,18.90
2018-06-08T22:18:39.188Z,18.90
2018-06-08T22:21:06.572Z,18.90
2018-06-08T22:23:34.302Z,18.80
2018-06-08T22:26:01.872Z,18.80
2018-06-08T22:28:29.502Z,18.80
2018-06-08T22:30:56.831Z,18.80
2018-06-08T22:35:52.105Z,18.70
2018-06-08T22:38:20.013Z,18.70
2018-06-08T22:40:47.650Z,18.60
2018-06-08T22:43:15.166Z,18.60
2018-06-08T22:45:42.826Z,18.70
2018-06-08T22:48:16.874Z,18.70
2018-06-08T22:50:44.524Z,18.70
2018-06-08T22:53:12.642Z,18.70
2018-06-08T22:55:42.610Z,18.70
2018-06-08T22:58:10.862Z,18.60
2018-06-08T23:00:43.493Z,18.60
2018-06-08T23:03:10.891Z,18.60
2018-06-08T23:05:39.481Z,18.50
2018-06-08T23:08:06.824Z,18.50
2018-06-08T23:10:35.810Z,18.50
2018-06-08T23:13:05.411Z,18.50
2018-06-08T23:18:04.626Z,18.50
2018-06-08T23:20:32.204Z,18.50
2018-06-08T23:22:59.634Z,18.40
2018-06-08T23:25:28.382Z,18.40
2018-06-08T23:27:56.086Z,18.40
2018-06-08T23:30:23.788Z,18.40
2018-06-08T23:32:51.035Z,18.40
2018-06-08T23:35:18.499Z,18.40
2018-06-08T23:37:45.794Z,18.40
2018-06-08T23:40:13.212Z,18.40
2018-06-08T23:42:40.554Z,18.30
2018-06-08T23:45:07.893Z,18.30
2018-06-08T23:47:39.637Z,18.40
2018-06-08T23:50:13.617Z,18.30
2018-06-08T23:52:41.872Z,18.30
2018-06-08T23:55:14.189Z,18.30
2018-06-08T23:57:41.744Z,18.30
